Time;durP1;ratioP1;P1;durP2;ratioP2;P2;SDS_P1;SDS_P2;PMS_P1;PMS_P2;Temp;Humidity;BMP_temperature;BMP_pressure;BME280_temperature;BME280_humidity;BME280_pressure;Samples;Min_cycle;Max_cycle;Signal;HPM_P1;HPM_P2
2022/08/06 00:00:19;;;;;;;5.80;2.20;;;;;20.60;97288.00;;;;111160;1247;41124;-66
2022/08/06 00:03:05;;;;;;;7.00;2.70;;;;;20.52;97289.40;;;;111095;1248;41336;-65
2022/08/06 00:05:34;;;;;;;6.70;2.90;;;;;20.50;97285.60;;;;111087;1247;41145;-65
2022/08/06 00:08:07;;;;;;;7.00;2.80;;;;;20.44;97285.80;;;;111050;1248;41627;-66
2022/08/06 00:10:37;;;;;;;;;;;;;20.40;97284.40;;;;111178;1247;41260;-64
2022/08/06 00:13:07;;;;;;;6.70;2.30;;;;;20.40;97282.20;;;;111190;1248;41455;-64
2022/08/06 00:15:42;;;;;;;4.80;2.10;;;;;20.34;97281.80;;;;111040;1247;41568;-66
2022/08/06 00:18:31;;;;;;;5.40;2.50;;;;;20.36;97282.00;;;;111033;1248;41254;-65
2022/08/06 00:21:01;;;;;;;6.30;2.30;;;;;20.30;97274.80;;;;111101;1248;41150;-66
2022/08/06 00:23:30;;;;;;;5.50;2.60;;;;;20.30;97273.40;;;;111086;1250;42165;-65
2022/08/06 00:26:03;;;;;;;6.20;2.60;;;;;20.20;97279.00;;;;111058;1248;42046;-66
2022/08/06 00:28:32;;;;;;;6.20;2.70;;;;;20.20;97278.20;;;;110972;1249;41627;-66
2022/08/06 00:31:03;;;;;;;5.50;2.50;;;;;20.18;97274.60;;;;111032;1248;41629;-66
2022/08/06 00:33:34;;;;;;;5.00;2.20;;;;;20.14;97278.20;;;;111047;1247;41613;-66
2022/08/06 00:36:12;;;;;;;6.80;2.40;;;;;20.18;97278.20;;;;111077;1248;41251;-65
2022/08/06 00:38:41;;;;;;;4.00;2.10;;;;;20.12;97280.00;;;;111076;1247;42475;-65
2022/08/06 00:41:14;;;;;;;6.90;2.60;;;;;20.10;97272.40;;;;111102;1247;41582;-65
2022/08/06 00:43:45;;;;;;;7.10;2.30;;;;;20.10;97272.40;;;;111181;1248;41169;-65
2022/08/06 00:46:14;;;;;;;4.60;2.20;;;;;20.10;97274.20;;;;111218;1247;41956;-66
2022/08/06 00:48:44;;;;;;;7.10;2.80;;;;;20.10;97276.60;;;;111139;1247;41235;-66
2022/08/06 00:51:22;;;;;;;6.60;2.70;;;;;20.10;97280.40;;;;111069;1247;42449;-66
2022/08/06 00:53:52;;;;;;;6.10;2.50;;;;;20.10;97278.00;;;;111124;1247;41308;-66
2022/08/06 00:56:26;;;;;;;6.90;2.90;;;;;20.00;97279.80;;;;111157;1247;41624;-67
2022/08/06 00:58:58;;;;;;;7.40;3.10;;;;;20.00;97283.00;;;;111178;1247;41214;-66
2022/08/06 01:01:32;;;;;;;6.40;2.70;;;;;19.96;97283.80;;;;111223;1246;41258;-64
2022/08/06 01:04:19;;;;;;;5.50;2.50;;;;;19.90;97281.60;;;;111162;1248;41239;-64
2022/08/06 01:06:49;;;;;;;7.50;2.60;;;;;19.90;97276.00;;;;111113;1248;41215;-64
2022/08/06 01:09:26;;;;;;;5.30;2.40;;;;;19.90;97277.00;;;;111089;1247;41263;-65
2022/08/06 01:11:59;;;;;;;6.90;2.50;;;;;19.80;97277.40;;;;111172;1247;41155;-66
2022/08/06 01:14:32;;;;;;;4.30;2.10;;;;;19.80;97277.80;;;;111008;1248;41153;-66
2022/08/06 01:17:22;;;;;;;4.60;2.10;;;;;19.80;97278.40;;;;111008;1248;41619;-65
2022/08/06 01:20:27;;;;;;;5.70;2.30;;;;;19.80;97276.20;;;;109887;1248;1586441;-66
2022/08/06 01:23:48;;;;;;;4.30;2.10;;;;;19.80;97276.80;;;;110926;1248;42337;-66
2022/08/06 01:26:45;;;;;;;6.40;2.70;;;;;19.80;97275.00;;;;110869;1248;41141;-65
2022/08/06 01:29:30;;;;;;;6.80;2.40;;;;;19.72;97272.20;;;;111121;1247;41196;-66
2022/08/06 01:32:06;;;;;;;7.80;3.00;;;;;19.70;97271.80;;;;111072;1248;41256;-65
2022/08/06 01:34:48;;;;;;;6.00;2.60;;;;;19.70;97268.40;;;;111060;1247;41796;-66
2022/08/06 01:37:36;;;;;;;6.10;2.70;;;;;19.70;97270.00;;;;111065;1247;41627;-65
2022/08/06 01:40:12;;;;;;;5.90;2.40;;;;;19.70;97269.80;;;;111107;1248;41184;-65
2022/08/06 01:42:44;;;;;;;6.80;2.90;;;;;19.70;97269.60;;;;111119;1250;42377;-65
2022/08/06 01:45:15;;;;;;;12.00;3.30;;;;;19.70;97269.40;;;;111045;1249;41675;-64
2022/08/06 01:47:50;;;;;;;8.20;3.60;;;;;19.70;97267.20;;;;111050;1248;41288;-66
2022/08/06 01:50:40;;;;;;;8.00;3.40;;;;;19.70;97270.80;;;;111061;1247;41285;-66
2022/08/06 01:53:14;;;;;;;10.10;3.20;;;;;19.60;97274.60;;;;110943;1250;41401;-66
2022/08/06 01:55:48;;;;;;;6.50;2.60;;;;;19.50;97271.80;;;;111056;1248;41697;-66
2022/08/06 01:58:39;;;;;;;5.30;2.40;;;;;19.50;97268.80;;;;111050;1247;41156;-66
2022/08/06 02:01:12;;;;;;;5.50;2.40;;;;;19.40;97267.20;;;;111072;1247;41142;-66
2022/08/06 02:03:48;;;;;;;7.40;2.60;;;;;19.40;97265.80;;;;110834;1249;41588;-66
2022/08/06 02:06:36;;;;;;;7.60;2.60;;;;;19.40;97267.20;;;;110963;1248;41723;-66
2022/08/06 02:09:10;;;;;;;5.00;2.40;;;;;19.30;97264.20;;;;111059;1248;42603;-66
2022/08/06 02:12:04;;;;;;;6.70;2.70;;;;;19.30;97264.20;;;;111128;1248;41133;-66
2022/08/06 02:14:37;;;;;;;4.00;2.10;;;;;19.30;97260.60;;;;111014;1248;41649;-66
2022/08/06 02:17:12;;;;;;;8.50;3.30;;;;;19.30;97262.00;;;;111080;1248;41148;-66
2022/08/06 02:19:46;;;;;;;7.90;3.00;;;;;19.20;97261.60;;;;111094;1248;41605;-66
2022/08/06 02:22:34;;;;;;;7.10;3.10;;;;;19.18;97261.60;;;;111171;1248;41582;-66
2022/08/06 02:25:08;;;;;;;6.40;2.70;;;;;19.10;97263.00;;;;111069;1248;41132;-66
2022/08/06 02:27:47;;;;;;;6.70;2.60;;;;;19.10;97262.40;;;;111048;1247;41261;-66
2022/08/06 02:30:23;;;;;;;6.10;2.50;;;;;19.10;97257.60;;;;111090;1248;41132;-66
2022/08/06 02:32:57;;;;;;;10.30;3.60;;;;;19.00;97259.40;;;;111110;1247;41137;-64
2022/08/06 02:35:33;;;;;;;8.80;3.50;;;;;19.00;97257.20;;;;111032;1247;41764;-65
2022/08/06 02:38:10;;;;;;;6.70;2.90;;;;;19.00;97258.00;;;;111021;1248;41283;-65
2022/08/06 02:40:53;;;;;;;7.60;3.40;;;;;19.00;97261.40;;;;111115;1247;41132;-65
2022/08/06 02:43:32;;;;;;;8.50;3.70;;;;;19.00;97264.60;;;;111151;1247;41183;-65
2022/08/06 02:46:13;;;;;;;7.70;4.00;;;;;18.80;97267.00;;;;111340;1247;41258;-65
2022/08/06 02:48:52;;;;;;;;;;;;;18.78;97269.40;;;;111201;1247;41614;-65
2022/08/06 02:51:52;;;;;;;9.80;3.70;;;;;18.70;97269.60;;;;111334;1247;41160;-65
2022/08/06 02:54:44;;;;;;;7.10;3.30;;;;;18.60;97267.60;;;;111162;1247;41166;-66
2022/08/06 02:57:21;;;;;;;6.30;2.60;;;;;18.60;97267.00;;;;111138;1247;41256;-67
2022/08/06 02:59:55;;;;;;;7.20;2.90;;;;;18.60;97267.80;;;;110915;1247;41187;-67
2022/08/06 03:02:26;;;;;;;7.50;3.10;;;;;18.60;97267.00;;;;111152;1247;41367;-64
2022/08/06 03:04:57;;;;;;;8.70;3.00;;;;;18.60;97271.20;;;;111277;1247;41152;-64
2022/08/06 03:07:29;;;;;;;7.90;2.90;;;;;18.60;97272.40;;;;111167;1247;41141;-63
2022/08/06 03:10:01;;;;;;;6.30;2.70;;;;;18.58;97273.20;;;;111095;1247;42171;-65
2022/08/06 03:12:30;;;;;;;6.60;2.80;;;;;18.60;97275.20;;;;110740;1251;41204;-65
2022/08/06 03:15:02;;;;;;;7.10;3.00;;;;;18.60;97280.80;;;;111129;1247;41353;-65
2022/08/06 03:17:41;;;;;;;6.10;2.60;;;;;18.60;97281.00;;;;111084;1247;41143;-65
2022/08/06 03:20:16;;;;;;;6.60;2.60;;;;;18.60;97281.20;;;;111220;1248;41312;-65
2022/08/06 03:22:47;;;;;;;7.30;3.00;;;;;18.60;97283.60;;;;111090;1247;41354;-65
2022/08/06 03:25:17;;;;;;;7.10;3.10;;;;;18.60;97285.40;;;;111225;1248;41661;-64
2022/08/06 03:27:50;;;;;;;6.70;2.80;;;;;18.60;97290.00;;;;111222;1247;41153;-64
2022/08/06 03:30:21;;;;;;;6.80;3.00;;;;;18.66;97288.40;;;;110934;1248;41912;-66
2022/08/06 03:33:08;;;;;;;8.50;3.30;;;;;18.70;97290.60;;;;111211;1247;41475;-66
2022/08/06 03:36:00;;;;;;;6.80;2.90;;;;;18.70;97284.60;;;;111041;1248;41760;-65
2022/08/06 03:38:37;;;;;;;6.60;2.80;;;;;18.70;97287.60;;;;110996;1247;41240;-66
2022/08/06 03:41:07;;;;;;;8.70;2.90;;;;;18.80;97292.00;;;;110888;1247;43131;-66
2022/08/06 03:43:37;;;;;;;6.40;3.00;;;;;18.80;97291.40;;;;111141;1247;42371;-66
2022/08/06 03:46:28;;;;;;;7.30;3.00;;;;;18.80;97293.00;;;;111266;1247;41631;-66
2022/08/06 03:49:00;;;;;;;5.80;2.50;;;;;18.88;97293.80;;;;111115;1247;42241;-66
2022/08/06 03:51:30;;;;;;;6.90;3.20;;;;;18.90;97294.60;;;;111113;1247;42424;-67
2022/08/06 03:54:23;;;;;;;7.30;3.30;;;;;18.98;97291.60;;;;111197;1248;41163;-66
2022/08/06 03:57:20;;;;;;;7.60;3.40;;;;;19.00;97296.60;;;;111226;1247;41236;-65
2022/08/06 03:59:53;;;;;;;9.80;4.10;;;;;19.00;97295.40;;;;110963;1250;41148;-66
2022/08/06 04:02:32;;;;;;;9.70;3.70;;;;;19.06;97297.40;;;;111214;1248;41263;-66
2022/08/06 04:05:07;;;;;;;7.50;3.50;;;;;19.10;97304.80;;;;111182;1246;41729;-66
2022/08/06 04:07:36;;;;;;;9.40;3.90;;;;;19.20;97308.40;;;;111232;1245;41129;-65
2022/08/06 04:10:31;;;;;;;7.60;3.10;;;;;19.54;97308.40;;;;111147;1247;41136;-65
2022/08/06 04:13:05;;;;;;;8.40;3.60;;;;;19.96;97314.00;;;;111119;1247;43304;-66
2022/08/06 04:15:56;;;;;;;7.40;3.10;;;;;20.40;97313.60;;;;110790;1250;41697;-65
2022/08/06 04:18:36;;;;;;;7.00;3.00;;;;;20.82;97313.00;;;;111432;1247;41526;-66
2022/08/06 04:21:15;;;;;;;7.40;2.80;;;;;21.30;97308.20;;;;111331;1246;41164;-66
2022/08/06 04:23:48;;;;;;;7.40;2.90;;;;;21.80;97307.40;;;;111200;1246;42391;-66
2022/08/06 04:26:22;;;;;;;9.80;3.50;;;;;22.30;97303.40;;;;111292;1247;41922;-65
2022/08/06 04:28:55;;;;;;;9.50;4.00;;;;;22.84;97302.80;;;;111248;1247;41198;-66
2022/08/06 04:31:27;;;;;;;9.40;4.00;;;;;23.38;97297.80;;;;111031;1247;41165;-66
2022/08/06 04:34:24;;;;;;;7.80;3.40;;;;;23.82;97289.60;;;;111330;1247;41355;-67
2022/08/06 04:36:58;;;;;;;7.10;3.20;;;;;24.12;97278.00;;;;111347;1246;41124;-67
2022/08/06 04:39:30;;;;;;;7.20;3.20;;;;;24.54;97273.80;;;;111089;1247;41388;-66
2022/08/06 04:42:06;;;;;;;7.00;3.10;;;;;25.02;97268.60;;;;111309;1246;41846;-65
2022/08/06 04:44:35;;;;;;;7.60;3.30;;;;;25.58;97269.80;;;;111319;1247;41142;-68
2022/08/06 04:47:04;;;;;;;9.00;4.20;;;;;26.00;97267.80;;;;111219;1247;41642;-68
2022/08/06 04:49:34;;;;;;;9.80;4.10;;;;;26.40;97269.00;;;;111039;1248;41265;-67
2022/08/06 04:52:28;;;;;;;8.70;3.90;;;;;26.76;97276.20;;;;111078;1248;41143;-70
2022/08/06 04:55:06;;;;;;;9.10;3.90;;;;;27.26;97267.20;;;;111170;1247;41148;-68
2022/08/06 04:57:53;;;;;;;8.90;4.10;;;;;27.78;97270.60;;;;111056;1248;41124;-69
2022/08/06 05:00:25;;;;;;;8.70;3.90;;;;;28.20;97270.40;;;;111139;1247;41171;-67
2022/08/06 05:03:02;;;;;;;9.80;3.90;;;;;28.60;97271.40;;;;111357;1246;40959;-69
2022/08/06 05:05:39;;;;;;;7.90;3.90;;;;;29.00;97268.00;;;;111187;1247;41140;-67
2022/08/06 05:08:09;;;;;;;9.50;3.90;;;;;29.30;97267.60;;;;111171;1248;42224;-67
2022/08/06 05:10:47;;;;;;;9.70;3.70;;;;;29.40;97270.60;;;;110661;1250;41901;-68
2022/08/06 05:13:20;;;;;;;8.60;3.20;;;;;29.70;97265.20;;;;111256;1247;41146;-68
2022/08/06 05:16:05;;;;;;;9.00;3.40;;;;;30.10;97269.60;;;;111320;1246;41633;-66
2022/08/06 05:18:37;;;;;;;7.00;3.20;;;;;30.50;97266.60;;;;111010;1247;41131;-68
2022/08/06 05:21:33;;;;;;;6.00;2.70;;;;;30.90;97267.20;;;;111047;1248;41118;-67
2022/08/06 05:24:22;;;;;;;7.10;3.20;;;;;31.30;97271.60;;;;110873;1248;41326;-68
2022/08/06 05:27:10;;;;;;;6.70;2.70;;;;;31.62;97264.20;;;;111237;1247;41738;-66
2022/08/06 05:29:40;;;;;;;6.50;3.00;;;;;31.82;97266.40;;;;111265;1247;41233;-66
2022/08/06 05:32:17;;;;;;;9.10;3.50;;;;;31.74;97260.00;;;;111224;1245;41257;-68
2022/08/06 05:34:46;;;;;;;7.80;3.50;;;;;31.86;97262.40;;;;111229;1245;41136;-67
2022/08/06 05:37:19;;;;;;;7.40;2.50;;;;;31.90;97265.80;;;;111113;1248;41183;-68
2022/08/06 05:39:54;;;;;;;5.40;2.50;;;;;32.10;97264.40;;;;111418;1247;41243;-68
2022/08/06 05:42:25;;;;;;;8.50;3.00;;;;;32.20;97265.60;;;;111182;1247;41248;-69
2022/08/06 05:44:54;;;;;;;7.70;3.40;;;;;32.32;97264.80;;;;111176;1247;41153;-68
2022/08/06 05:47:26;;;;;;;7.90;2.90;;;;;32.50;97266.60;;;;111200;1246;41158;-69
2022/08/06 05:50:18;;;;;;;7.30;2.60;;;;;32.70;97266.80;;;;111238;1247;41143;-68
2022/08/06 05:52:50;;;;;;;7.00;3.10;;;;;33.00;97271.60;;;;111144;1247;41707;-69
2022/08/06 05:55:48;;;;;;;9.40;3.70;;;;;33.14;97271.00;;;;111181;1247;41672;-69
2022/08/06 05:58:37;;;;;;;9.30;4.00;;;;;33.14;97265.40;;;;111134;1247;41267;-69
2022/08/06 06:01:09;;;;;;;8.00;3.20;;;;;33.14;97267.20;;;;111171;1246;42322;-68
2022/08/06 06:03:41;;;;;;;8.60;3.20;;;;;33.20;97262.80;;;;110820;1249;41954;-70
2022/08/06 06:06:11;;;;;;;8.00;3.10;;;;;33.40;97264.60;;;;111300;1247;41131;-71
2022/08/06 06:08:45;;;;;;;8.50;3.20;;;;;33.40;97265.40;;;;111306;1246;41143;-69
2022/08/06 06:11:28;;;;;;;7.60;2.80;;;;;32.86;97283.40;;;;111357;1245;41259;-69
2022/08/06 06:14:28;;;;;;;5.90;2.50;;;;;32.44;97284.00;;;;111236;1247;42552;-69
2022/08/06 06:17:44;;;;;;;7.70;3.30;;;;;32.40;97276.20;;;;111207;1247;42644;-69
2022/08/06 06:21:11;;;;;;;6.70;2.80;;;;;32.50;97273.40;;;;110512;1247;41308;-70
2022/08/06 06:23:54;;;;;;;7.50;3.10;;;;;33.20;97272.60;;;;110210;1255;41213;-67
2022/08/06 06:26:52;;;;;;;7.70;3.20;;;;;33.40;97270.20;;;;111284;1247;41146;-67
2022/08/06 06:29:43;;;;;;;7.20;3.00;;;;;33.72;97271.20;;;;111154;1247;41131;-69
2022/08/06 06:32:34;;;;;;;6.70;2.80;;;;;34.28;97268.20;;;;111046;1247;41265;-71
2022/08/06 06:35:15;;;;;;;5.80;2.60;;;;;34.54;97268.60;;;;111284;1247;41132;-70
2022/08/06 06:37:46;;;;;;;6.50;2.90;;;;;34.84;97262.60;;;;111291;1246;41610;-70
2022/08/06 06:40:45;;;;;;;10.70;3.10;;;;;35.00;97267.00;;;;111200;1246;41868;-70
2022/08/06 06:43:33;;;;;;;7.60;3.20;;;;;35.12;97263.60;;;;111097;1248;41137;-70
2022/08/06 06:46:24;;;;;;;9.80;3.00;;;;;34.70;97265.60;;;;110987;1248;41597;-70
2022/08/06 06:49:27;;;;;;;8.70;3.00;;;;;35.00;97265.60;;;;110718;1250;41601;-70
2022/08/06 06:52:31;;;;;;;6.70;2.60;;;;;35.60;97265.40;;;;111059;1247;42023;-70
2022/08/06 06:55:15;;;;;;;6.20;2.40;;;;;36.00;97256.80;;;;110927;1247;41126;-70
2022/08/06 06:57:58;;;;;;;7.10;2.40;;;;;36.42;97255.60;;;;110958;1248;41606;-70
2022/08/06 07:00:29;;;;;;;7.00;3.10;;;;;36.82;97262.20;;;;111023;1248;41263;-71
2022/08/06 07:03:15;;;;;;;5.90;2.40;;;;;36.90;97262.00;;;;111078;1248;41470;-70
2022/08/06 07:05:46;;;;;;;6.60;2.40;;;;;37.44;97261.00;;;;110638;1250;41155;-71
2022/08/06 07:08:35;;;;;;;7.50;2.60;;;;;38.20;97261.80;;;;111035;1248;41553;-71
2022/08/06 07:11:05;;;;;;;6.30;2.50;;;;;38.60;97258.60;;;;111261;1245;42207;-71
2022/08/06 07:13:37;;;;;;;5.20;2.50;;;;;38.40;97252.60;;;;111416;1245;41256;-70
2022/08/06 07:16:16;;;;;;;8.10;3.10;;;;;38.80;97254.20;;;;111071;1247;42384;-71
2022/08/06 07:19:04;;;;;;;6.40;2.50;;;;;38.18;97250.60;;;;111096;1248;41154;-71
2022/08/06 07:21:34;;;;;;;6.50;2.80;;;;;38.14;97248.60;;;;111082;1247;41601;-71
2022/08/06 07:24:02;;;;;;;;;;;;;38.12;97244.60;;;;111255;1247;41134;-72
2022/08/06 07:26:53;;;;;;;;;;;;;37.58;97240.20;;;;111262;1246;41254;-72
2022/08/06 07:29:22;;;;;;;6.10;2.30;;;;;38.14;97240.00;;;;111103;1247;41604;-72
2022/08/06 07:32:11;;;;;;;6.30;2.50;;;;;38.26;97235.60;;;;111309;1246;41123;-70
2022/08/06 07:35:01;;;;;;;6.40;2.90;;;;;38.58;97237.00;;;;111324;1247;41675;-71
2022/08/06 07:37:35;;;;;;;8.20;3.20;;;;;37.14;97238.60;;;;111311;1245;42465;-71
2022/08/06 07:40:09;;;;;;;7.60;3.50;;;;;35.90;97242.00;;;;111421;1245;41179;-71
2022/08/06 07:42:38;;;;;;;7.70;3.40;;;;;34.62;97246.80;;;;111348;1247;41263;-71
2022/08/06 07:45:09;;;;;;;7.70;3.10;;;;;33.72;97258.20;;;;111108;1247;42059;-71
2022/08/06 07:47:45;;;;;;;7.70;2.90;;;;;33.70;97260.20;;;;111296;1245;41320;-71
2022/08/06 07:50:24;;;;;;;7.70;2.90;;;;;33.66;97266.60;;;;111139;1246;41150;-71
2022/08/06 07:52:55;;;;;;;8.40;3.10;;;;;33.56;97263.80;;;;111254;1245;41151;-72
2022/08/06 07:55:25;;;;;;;8.20;2.90;;;;;33.24;97264.40;;;;111191;1247;41451;-70
2022/08/06 07:58:00;;;;;;;9.10;3.50;;;;;32.60;97265.60;;;;110944;1247;41208;-71
2022/08/06 08:00:31;;;;;;;7.10;2.60;;;;;32.70;97265.80;;;;111320;1246;41560;-71
2022/08/06 08:06:18;;;;;;;8.20;3.20;;;;;33.16;97261.60;;;;111110;1246;41191;-71
2022/08/06 08:08:54;;;;;;;8.70;3.50;;;;;33.26;97258.00;;;;111139;1248;41185;-72
2022/08/06 08:11:25;;;;;;;7.60;3.10;;;;;32.90;97264.20;;;;110782;1250;41604;-71
2022/08/06 08:14:06;;;;;;;10.50;3.40;;;;;32.90;97265.20;;;;110938;1247;41155;-70
2022/08/06 08:16:36;;;;;;;5.70;2.50;;;;;32.92;97272.00;;;;110811;1250;41260;-71
2022/08/06 08:19:27;;;;;;;8.20;2.50;;;;;33.08;97270.60;;;;110766;1250;41358;-70
2022/08/06 08:22:05;;;;;;;7.20;3.10;;;;;33.58;97267.00;;;;110627;1250;42140;-70
2022/08/06 08:24:36;;;;;;;5.60;2.40;;;;;34.30;97260.20;;;;110730;1248;41800;-70
2022/08/06 08:27:10;;;;;;;5.70;2.50;;;;;34.28;97264.40;;;;111116;1248;41745;-71
2022/08/06 08:29:50;;;;;;;5.90;2.40;;;;;35.06;97261.20;;;;111069;1247;41143;-70
2022/08/06 08:32:24;;;;;;;5.70;2.60;;;;;35.84;97258.00;;;;111078;1248;41815;-70
2022/08/06 08:34:53;;;;;;;;;;;;;36.60;97255.00;;;;111086;1246;41148;-71
2022/08/06 08:37:24;;;;;;;6.80;2.60;;;;;37.38;97254.20;;;;111128;1247;41255;-70
2022/08/06 08:39:53;;;;;;;8.70;2.70;;;;;38.04;97255.80;;;;111082;1247;41143;-71
2022/08/06 08:42:29;;;;;;;6.10;2.70;;;;;38.38;97253.20;;;;110921;1247;41364;-72
2022/08/06 08:45:00;;;;;;;7.30;2.80;;;;;38.20;97251.60;;;;111066;1247;41152;-71
2022/08/06 08:47:31;;;;;;;6.10;2.60;;;;;38.10;97244.20;;;;110925;1248;41249;-71
2022/08/06 08:50:16;;;;;;;5.40;2.10;;;;;38.52;97246.00;;;;110967;1248;41153;-71
2022/08/06 08:52:47;;;;;;;5.10;2.30;;;;;39.22;97241.60;;;;111061;1248;42020;-71
2022/08/06 08:55:21;;;;;;;10.40;3.20;;;;;40.08;97238.00;;;;111072;1248;41148;-71
2022/08/06 08:58:12;;;;;;;6.50;2.50;;;;;40.40;97237.00;;;;110822;1250;41182;-71
2022/08/06 09:01:01;;;;;;;8.40;3.00;;;;;39.40;97232.00;;;;110955;1248;41263;-71
2022/08/06 09:03:34;;;;;;;7.10;3.00;;;;;38.40;97234.80;;;;110688;1249;41275;-71
2022/08/06 09:06:04;;;;;;;5.40;2.10;;;;;37.80;97243.40;;;;111215;1247;41253;-70
2022/08/06 09:08:33;;;;;;;5.30;2.30;;;;;38.28;97241.20;;;;111077;1248;41596;-71
2022/08/06 09:11:14;;;;;;;5.70;2.50;;;;;38.92;97233.20;;;;111053;1247;41151;-72
2022/08/06 09:14:07;;;;;;;8.70;3.30;;;;;39.84;97233.80;;;;111105;1247;41161;-72
2022/08/06 09:16:37;;;;;;;6.30;2.40;;;;;40.54;97238.00;;;;111105;1249;41816;-72
2022/08/06 09:19:06;;;;;;;;;;;;;41.10;97234.40;;;;111102;1246;41134;-71
2022/08/06 09:21:37;;;;;;;8.70;2.40;;;;;41.68;97233.60;;;;111176;1247;41139;-71
2022/08/06 09:24:07;;;;;;;7.50;3.00;;;;;42.10;97227.60;;;;110897;1248;41136;-70
2022/08/06 09:26:35;;;;;;;4.90;2.40;;;;;42.24;97230.00;;;;111162;1247;41765;-70
2022/08/06 09:29:22;;;;;;;5.90;2.20;;;;;41.56;97229.40;;;;110837;1249;41147;-71
2022/08/06 09:32:04;;;;;;;8.30;2.90;;;;;40.86;97228.40;;;;110904;1248;41676;-71
2022/08/06 09:34:39;;;;;;;6.00;2.30;;;;;40.84;97226.20;;;;111009;1248;41476;-71
2022/08/06 09:37:08;;;;;;;6.20;2.40;;;;;39.86;97230.60;;;;111094;1247;41176;-70
2022/08/06 09:39:44;;;;;;;4.60;1.90;;;;;38.58;97229.40;;;;111184;1248;41793;-70
2022/08/06 09:42:37;;;;;;;4.80;2.10;;;;;39.50;97230.40;;;;110937;1248;41201;-70
2022/08/06 09:45:12;;;;;;;6.40;2.40;;;;;40.20;97230.80;;;;110681;1250;41271;-70
2022/08/06 09:48:03;;;;;;;5.30;2.30;;;;;40.06;97230.40;;;;110798;1250;41172;-70
2022/08/06 09:50:41;;;;;;;7.90;2.20;;;;;39.70;97230.60;;;;110687;1250;41131;-70
2022/08/06 09:53:12;;;;;;;6.00;2.40;;;;;40.10;97226.00;;;;110784;1249;41246;-71
2022/08/06 09:55:45;;;;;;;5.90;2.20;;;;;40.24;97228.00;;;;111009;1247;41191;-71
2022/08/06 09:58:36;;;;;;;4.70;2.20;;;;;40.62;97224.80;;;;110756;1247;41150;-71
2022/08/06 10:01:13;;;;;;;4.70;2.10;;;;;41.00;97218.40;;;;110751;1247;41263;-72
2022/08/06 10:03:50;;;;;;;5.10;2.00;;;;;41.50;97216.00;;;;110942;1247;41334;-71
2022/08/06 10:06:33;;;;;;;5.00;2.20;;;;;41.66;97217.20;;;;110709;1249;41267;-72
2022/08/06 10:09:08;;;;;;;6.10;2.50;;;;;42.14;97215.40;;;;111198;1247;41605;-72
2022/08/06 10:11:48;;;;;;;7.00;2.90;;;;;42.70;97214.00;;;;111061;1247;41253;-72
2022/08/06 10:14:27;;;;;;;;;;;;;43.20;97219.20;;;;111094;1248;41142;-73
2022/08/06 10:17:06;;;;;;;10.30;4.10;;;;;43.70;97211.40;;;;111102;1246;42849;-73
2022/08/06 10:19:37;;;;;;;10.00;3.20;;;;;44.04;97203.80;;;;111123;1247;41602;-73
2022/08/06 10:22:19;;;;;;;6.10;2.70;;;;;44.20;97203.60;;;;111276;1247;41154;-72
2022/08/06 10:24:51;;;;;;;6.90;3.10;;;;;44.20;97205.40;;;;111158;1247;41608;-73
2022/08/06 10:27:25;;;;;;;9.20;4.20;;;;;43.90;97208.00;;;;111381;1247;41713;-71
2022/08/06 10:30:08;;;;;;;6.90;2.90;;;;;43.80;97211.80;;;;111234;1247;41380;-72
2022/08/06 10:33:03;;;;;;;5.20;2.00;;;;;43.70;97209.20;;;;111253;1247;41303;-72
2022/08/06 10:35:33;;;;;;;4.80;2.00;;;;;44.00;97211.40;;;;111154;1246;41133;-69
2022/08/06 10:38:05;;;;;;;5.10;2.20;;;;;43.90;97212.00;;;;111273;1246;41130;-71
2022/08/06 10:40:43;;;;;;;5.50;2.20;;;;;44.18;97212.80;;;;111332;1247;40742;-72
2022/08/06 10:43:25;;;;;;;4.80;2.10;;;;;44.02;97210.80;;;;111115;1249;41147;-71
2022/08/06 10:45:54;;;;;;;5.30;2.00;;;;;44.04;97208.00;;;;110906;1249;41151;-72
2022/08/06 10:48:24;;;;;;;4.90;2.10;;;;;43.84;97209.60;;;;110785;1249;42490;-70
2022/08/06 10:51:13;;;;;;;4.80;2.10;;;;;43.90;97204.80;;;;111331;1247;41153;-71
2022/08/06 10:53:44;;;;;;;4.90;2.00;;;;;43.44;97204.00;;;;111413;1246;41930;-71
2022/08/06 10:56:30;;;;;;;4.80;2.10;;;;;43.00;97202.80;;;;110939;1247;41184;-72
2022/08/06 10:59:08;;;;;;;6.80;2.40;;;;;42.52;97203.20;;;;111166;1247;41259;-71
2022/08/06 11:02:16;;;;;;;5.60;2.30;;;;;42.00;97204.60;;;;111277;1246;42267;-71
2022/08/06 11:04:58;;;;;;;5.30;2.60;;;;;41.80;97199.80;;;;111037;1247;42286;-71
2022/08/06 11:07:33;;;;;;;7.80;2.30;;;;;41.92;97209.20;;;;110801;1247;41163;-70
2022/08/06 11:10:48;;;;;;;5.00;2.10;;;;;42.20;97198.80;;;;111146;1247;41259;-70
2022/08/06 11:13:33;;;;;;;4.30;2.00;;;;;42.90;97200.00;;;;111247;1247;41262;-71
2022/08/06 11:16:05;;;;;;;5.40;2.10;;;;;43.36;97199.80;;;;111056;1247;41279;-69
2022/08/06 11:18:34;;;;;;;6.00;2.40;;;;;43.90;97193.80;;;;111140;1247;41158;-71
2022/08/06 11:21:05;;;;;;;5.90;2.50;;;;;44.80;97187.60;;;;110951;1247;41162;-70
2022/08/06 11:23:33;;;;;;;7.10;2.40;;;;;45.54;97186.00;;;;111155;1247;42022;-70
2022/08/06 11:26:36;;;;;;;10.00;5.00;;;;;46.54;97182.20;;;;111064;1247;41555;-71
2022/08/06 11:29:07;;;;;;;8.20;3.40;;;;;46.30;97184.00;;;;111220;1246;41147;-70
2022/08/06 11:31:46;;;;;;;8.10;3.40;;;;;46.64;97176.80;;;;111296;1246;41733;-70
2022/08/06 11:34:43;;;;;;;12.90;7.80;;;;;46.84;97178.80;;;;110933;1248;41160;-70
2022/08/06 11:37:54;;;;;;;13.00;7.30;;;;;47.24;97178.60;;;;111232;1248;41243;-71
2022/08/06 11:40:54;;;;;;;9.00;2.40;;;;;47.40;97180.00;;;;110376;1254;41263;-70
2022/08/06 11:43:38;;;;;;;6.10;2.60;;;;;47.14;97182.80;;;;111136;1248;41406;-70
2022/08/06 11:46:29;;;;;;;6.10;2.60;;;;;46.64;97178.40;;;;111247;1246;41132;-70
2022/08/06 11:48:59;;;;;;;5.00;2.10;;;;;46.18;97181.40;;;;111224;1246;42474;-70
2022/08/06 11:51:40;;;;;;;4.40;2.10;;;;;46.74;97180.60;;;;111349;1247;41166;-70
2022/08/06 11:54:18;;;;;;;4.20;1.90;;;;;46.88;97181.40;;;;111251;1245;41524;-70
2022/08/06 11:57:06;;;;;;;4.50;2.10;;;;;45.68;97181.00;;;;111163;1247;41398;-70
2022/08/06 11:59:44;;;;;;;3.90;1.90;;;;;45.30;97181.40;;;;111257;1245;42226;-70
2022/08/06 12:02:16;;;;;;;6.90;1.90;;;;;45.40;97178.40;;;;111231;1245;41138;-70
2022/08/06 12:04:46;;;;;;;4.50;1.80;;;;;45.82;97176.20;;;;110796;1250;41248;-70
2022/08/06 12:07:24;;;;;;;5.90;2.00;;;;;46.48;97175.60;;;;111356;1247;41464;-69
2022/08/06 12:10:06;;;;;;;3.40;1.60;;;;;46.80;97163.00;;;;111267;1246;42071;-71
2022/08/06 12:12:39;;;;;;;4.60;1.70;;;;;47.10;97161.60;;;;111252;1246;41275;-70
2022/08/06 12:15:11;;;;;;;3.70;1.80;;;;;47.40;97163.80;;;;111364;1246;41132;-72
2022/08/06 12:18:07;;;;;;;4.40;1.70;;;;;47.70;97159.60;;;;111202;1246;41868;-74
2022/08/06 12:20:49;;;;;;;3.70;1.60;;;;;47.80;97160.60;;;;111272;1245;41124;-72
2022/08/06 12:23:24;;;;;;;6.00;1.80;;;;;48.08;97154.60;;;;111483;1247;41144;-72
2022/08/06 12:26:13;;;;;;;3.40;1.70;;;;;48.32;97149.20;;;;110964;1247;41374;-71
2022/08/06 12:28:42;;;;;;;4.20;1.80;;;;;47.90;97142.00;;;;111260;1245;41161;-71
2022/08/06 12:31:12;;;;;;;4.80;1.80;;;;;47.94;97143.40;;;;111185;1247;41758;-71
2022/08/06 12:34:02;;;;;;;3.50;1.80;;;;;47.20;97152.00;;;;111262;1246;41179;-71
2022/08/06 12:36:33;;;;;;;5.00;1.90;;;;;47.10;97146.80;;;;111379;1245;41291;-71
2022/08/06 12:39:05;;;;;;;5.10;2.20;;;;;46.78;97142.80;;;;111250;1246;41716;-70
2022/08/06 12:41:41;;;;;;;3.70;1.70;;;;;46.40;97144.40;;;;111138;1246;41191;-69
2022/08/06 12:44:15;;;;;;;3.60;1.80;;;;;45.40;97145.20;;;;111283;1246;41148;-70
2022/08/06 12:46:47;;;;;;;3.80;1.60;;;;;44.40;97145.40;;;;111097;1247;41124;-70
2022/08/06 12:49:16;;;;;;;;;;;;;43.90;97146.60;;;;110992;1247;41256;-70
2022/08/06 12:51:44;;;;;;;4.70;1.80;;;;;43.30;97149.40;;;;111053;1247;41253;-70
2022/08/06 12:54:13;;;;;;;;;;;;;42.80;97143.80;;;;111267;1247;41199;-70
2022/08/06 12:56:53;;;;;;;5.50;1.90;;;;;42.10;97148.80;;;;111288;1247;41155;-69
2022/08/06 12:59:21;;;;;;;3.80;1.80;;;;;41.70;97144.80;;;;111268;1247;41591;-69
2022/08/06 13:01:52;;;;;;;6.40;2.20;;;;;41.30;97143.60;;;;111068;1247;41263;-69
2022/08/06 13:04:37;;;;;;;3.70;1.80;;;;;40.94;97146.20;;;;111038;1247;41136;-68
2022/08/06 13:07:06;;;;;;;3.90;1.80;;;;;40.30;97147.80;;;;110832;1250;41266;-69
2022/08/06 13:09:36;;;;;;;3.90;2.00;;;;;39.80;97144.80;;;;111093;1247;41148;-68